createdAt,value
2022-12-22T00:00:07.940Z,382.00
2022-12-22T00:05:08.198Z,382.00
2022-12-22T00:10:06.381Z,382.00
2022-12-22T00:15:05.598Z,382.00
2022-12-22T00:20:04.754Z,382.00
2022-12-22T00:25:03.955Z,382.00
2022-12-22T00:30:03.342Z,382.00
2022-12-22T00:35:03.306Z,382.00
2022-12-22T00:40:01.569Z,380.20
2022-12-22T00:45:01.845Z,440.30
2022-12-22T00:50:00.164Z,429.70
2022-12-22T00:54:59.461Z,441.10
2022-12-22T00:59:58.768Z,420.50
2022-12-22T01:04:59.058Z,420.50
2022-12-22T01:09:59.330Z,442.70
2022-12-22T01:14:57.618Z,469.40
2022-12-22T01:19:55.909Z,452.10
2022-12-22T01:24:55.219Z,444.90
2022-12-22T01:29:53.396Z,448.00
2022-12-22T01:34:55.531Z,427.10
2022-12-22T01:39:54.801Z,420.90
2022-12-22T01:44:52.080Z,415.80
2022-12-22T01:49:52.362Z,425.30
2022-12-22T01:54:50.656Z,405.50
2022-12-22T01:59:51.004Z,420.10
2022-12-22T02:04:49.125Z,390.10
2022-12-22T02:09:49.425Z,412.80
2022-12-22T02:14:47.722Z,415.60
2022-12-22T02:19:48.056Z,386.90
2022-12-22T02:24:46.355Z,420.70
2022-12-22T02:29:46.669Z,423.70
2022-12-22T02:34:45.952Z,422.00
2022-12-22T02:39:46.228Z,408.30
2022-12-22T02:44:43.543Z,411.10
2022-12-22T02:49:42.814Z,409.80
2022-12-22T02:54:42.095Z,385.90
2022-12-22T02:59:41.376Z,395.90
2022-12-22T03:04:40.648Z,403.30
2022-12-22T03:09:39.923Z,390.10
2022-12-22T03:14:40.214Z,427.40
2022-12-22T03:19:40.507Z,411.90
2022-12-22T03:24:38.807Z,378.40
2022-12-22T03:29:37.113Z,378.40
2022-12-22T03:34:37.417Z,407.20
2022-12-22T03:39:36.692Z,424.20
2022-12-22T03:44:34.985Z,400.80
2022-12-22T03:49:33.278Z,403.10
2022-12-22T03:54:33.612Z,404.90
2022-12-22T03:59:34.891Z,414.60
2022-12-22T04:04:33.160Z,414.60
2022-12-22T04:09:31.467Z,422.00
2022-12-22T04:14:34.318Z,423.40
2022-12-22T04:19:29.989Z,422.30
2022-12-22T04:24:29.315Z,425.40
2022-12-22T04:29:29.626Z,425.20
2022-12-22T04:34:28.940Z,423.00
2022-12-22T04:39:29.298Z,427.30
2022-12-22T04:44:26.599Z,420.20
2022-12-22T04:49:25.947Z,410.00
2022-12-22T04:54:25.264Z,446.40
2022-12-22T04:59:24.626Z,365.30
2022-12-22T05:04:25.768Z,415.20
2022-12-22T05:09:23.094Z,411.90
2022-12-22T05:14:22.232Z,401.90
2022-12-22T05:19:24.883Z,425.30
2022-12-22T05:24:21.564Z,411.30
2022-12-22T05:29:20.881Z,408.70
2022-12-22T05:34:19.231Z,390.70
2022-12-22T05:39:18.519Z,390.70
2022-12-22T05:44:17.811Z,389.60
2022-12-22T05:49:17.123Z,339.90
2022-12-22T05:54:16.436Z,339.90
2022-12-22T05:59:15.579Z,339.90
2022-12-22T06:04:15.842Z,370.60
2022-12-22T06:09:15.087Z,369.40
2022-12-22T06:14:13.242Z,369.40
2022-12-22T06:19:13.396Z,370.90
2022-12-22T06:24:12.545Z,371.00
2022-12-22T06:29:10.832Z,371.00
2022-12-22T06:34:11.138Z,371.00
2022-12-22T06:39:09.445Z,371.00
2022-12-22T06:44:08.780Z,371.00
2022-12-22T06:49:08.932Z,371.00
2022-12-22T06:54:07.095Z,371.00
2022-12-22T06:59:06.421Z,371.00
2022-12-22T07:04:06.659Z,371.00
2022-12-22T07:09:04.762Z,371.00
2022-12-22T07:14:05.058Z,371.00
2022-12-22T07:19:03.398Z,371.00
2022-12-22T07:24:02.700Z,371.00
2022-12-22T07:29:02.021Z,371.00
2022-12-22T07:34:02.367Z,371.00
2022-12-22T07:39:00.487Z,371.00
2022-12-22T07:43:59.799Z,371.00
2022-12-22T07:48:59.127Z,371.00
2022-12-22T07:53:59.459Z,371.00
2022-12-22T07:58:58.818Z,371.00
2022-12-22T08:03:56.963Z,371.00
2022-12-22T08:08:57.095Z,371.00
2022-12-22T08:14:01.354Z,371.00
2022-12-22T08:18:54.688Z,371.00
2022-12-22T08:23:53.964Z,371.00
2022-12-22T08:28:53.213Z,371.00
2022-12-22T08:33:53.453Z,371.00
2022-12-22T08:38:52.654Z,371.00
2022-12-22T08:43:51.841Z,371.00
2022-12-22T08:48:50.111Z,371.00
2022-12-22T08:54:06.684Z,371.00
2022-12-22T08:58:49.550Z,371.00
2022-12-22T09:03:47.825Z,371.00
2022-12-22T09:08:47.039Z,371.00
2022-12-22T09:13:47.220Z,371.00
2022-12-22T09:18:45.392Z,371.00
2022-12-22T09:23:45.582Z,371.00
2022-12-22T09:28:49.887Z,371.00
2022-12-22T09:33:45.025Z,371.00
2022-12-22T09:38:42.217Z,371.00
2022-12-22T09:43:41.412Z,371.00
2022-12-22T09:48:40.671Z,371.00
2022-12-22T09:53:39.838Z,371.00
2022-12-22T09:58:39.032Z,371.00
2022-12-22T10:03:38.330Z,371.00
2022-12-22T10:08:39.371Z,371.00
2022-12-22T10:13:37.564Z,371.00
2022-12-22T10:18:36.774Z,371.00
2022-12-22T10:23:35.106Z,371.00
2022-12-22T10:28:34.321Z,371.00
2022-12-22T10:33:33.563Z,371.00
2022-12-22T10:38:32.784Z,371.00
2022-12-22T10:43:31.970Z,371.00
2022-12-22T10:48:31.178Z,371.00
2022-12-22T10:53:32.359Z,371.00
2022-12-22T10:58:29.624Z,371.00
2022-12-22T11:03:29.990Z,371.00
2022-12-22T11:08:28.128Z,371.00
2022-12-22T11:13:27.352Z,371.00
2022-12-22T11:18:26.574Z,371.00
2022-12-22T11:23:25.807Z,371.00
2022-12-22T11:28:25.028Z,371.00
2022-12-22T11:33:24.233Z,371.00
2022-12-22T11:38:23.437Z,371.00
2022-12-22T11:43:22.676Z,371.00
2022-12-22T11:48:21.909Z,371.00
2022-12-22T11:53:22.065Z,371.00
2022-12-22T11:58:21.239Z,371.00
2022-12-22T12:03:19.652Z,371.00
2022-12-22T12:08:18.603Z,371.00
2022-12-22T12:13:25.565Z,371.00
2022-12-22T12:18:16.915Z,367.20
2022-12-22T12:23:16.229Z,372.00
2022-12-22T12:28:16.602Z,372.00
2022-12-22T12:33:16.765Z,409.90
2022-12-22T12:38:25.965Z,417.60
2022-12-22T12:43:16.459Z,404.40
2022-12-22T12:48:13.339Z,400.70
2022-12-22T12:53:11.668Z,403.90
2022-12-22T12:58:11.790Z,309.20
2022-12-22T13:03:24.882Z,456.40
2022-12-22T13:08:09.400Z,438.90
2022-12-22T13:13:08.547Z,395.00
2022-12-22T13:18:08.907Z,407.40
2022-12-22T13:23:07.157Z,402.60
2022-12-22T13:28:07.441Z,440.60
2022-12-22T13:33:05.772Z,411.30
2022-12-22T13:38:04.916Z,385.50
2022-12-22T13:43:04.070Z,408.20
2022-12-22T13:48:02.277Z,402.40
2022-12-22T13:53:02.426Z,404.50
2022-12-22T13:58:01.544Z,356.10
2022-12-22T14:03:02.131Z,377.20
2022-12-22T14:08:00.192Z,406.10
2022-12-22T14:12:59.310Z,423.40
2022-12-22T14:17:58.659Z,388.40
2022-12-22T14:22:57.779Z,415.40
2022-12-22T14:27:57.101Z,429.60
2022-12-22T14:32:57.453Z,389.70
2022-12-22T14:37:56.580Z,369.60
2022-12-22T14:42:55.700Z,406.40
2022-12-22T14:47:55.059Z,398.40
2022-12-22T14:52:54.230Z,408.40
2022-12-22T14:57:52.344Z,385.20
2022-12-22T15:02:51.800Z,402.40
2022-12-22T15:08:08.471Z,398.00
2022-12-22T15:12:51.041Z,394.90
2022-12-22T15:17:49.152Z,411.30
2022-12-22T15:22:48.459Z,392.70
2022-12-22T15:27:47.772Z,397.30
2022-12-22T15:32:48.083Z,376.40
2022-12-22T15:37:48.377Z,460.80
2022-12-22T15:42:46.692Z,407.90
2022-12-22T15:47:44.809Z,421.20
2022-12-22T15:52:45.173Z,424.90
2022-12-22T15:57:44.234Z,419.20
2022-12-22T16:02:42.751Z,430.30
2022-12-22T16:07:42.838Z,415.30
2022-12-22T16:12:42.173Z,431.00
2022-12-22T16:17:41.322Z,392.40
2022-12-22T16:22:39.477Z,404.60
2022-12-22T16:27:38.628Z,401.60
2022-12-22T16:32:37.768Z,388.70
2022-12-22T16:37:36.957Z,371.00
